Time;durP1;ratioP1;P1;durP2;ratioP2;P2;SDS_P1;SDS_P2;PMS_P1;PMS_P2;Temp;Humidity;BMP_temperature;BMP_pressure;BME280_temperature;BME280_humidity;BME280_pressure;Samples;Min_cycle;Max_cycle;Signal;HPM_P1;HPM_P2
2023/02/16 00:01:14;;;;;;;3.10;0.90;;;;;;;;;;105824;1250;60550;-54
2023/02/16 00:03:42;;;;;;;2.40;0.80;;;;;;;;;;105296;1253;62172;-51
2023/02/16 00:06:14;;;;;;;2.00;0.80;;;;;;;;;;105366;1253;60566;-50
2023/02/16 00:08:46;;;;;;;3.10;0.90;;;;;;;;;;105432;1254;60639;-52
2023/02/16 00:14:06;;;;;;;3.70;0.80;;;;;;;;;;105385;1256;60425;-50
2023/02/16 00:16:35;;;;;;;5.30;1.00;;;;;;;;;;105263;1254;60995;-51
2023/02/16 00:19:22;;;;;;;5.30;1.10;;;;;;;;;;105367;1253;60537;-52
2023/02/16 00:21:51;;;;;;;2.30;0.80;;;;;;;;;;105377;1253;60573;-52
2023/02/16 00:24:19;;;;;;;4.40;1.00;;;;;;;;;;107683;1251;61890;-51
2023/02/16 00:26:47;;;;;;;2.20;0.90;;;;;;;;;;106054;1250;60329;-49
2023/02/16 00:29:19;;;;;;;4.70;0.80;;;;;;;;;;106944;1253;60700;-52
2023/02/16 00:31:47;;;;;;;2.00;0.90;;;;;;;;;;105552;1253;60413;-49
2023/02/16 00:34:16;;;;;;;4.30;0.90;;;;;;;;;;105764;1251;60392;-54
2023/02/16 00:36:46;;;;;;;3.30;0.90;;;;;;;;;;106191;1252;60843;-52
2023/02/16 00:39:14;;;;;;;4.60;0.90;;;;;;;;;;105474;1256;60647;-50
2023/02/16 00:41:50;;;;;;;4.20;1.30;;;;;;;;;;105460;1253;60300;-52
2023/02/16 00:44:20;;;;;;;5.50;1.10;;;;;;;;;;105827;1255;60631;-51
2023/02/16 00:46:50;;;;;;;4.60;0.90;;;;;;;;;;107831;1253;58283;-52
2023/02/16 00:49:18;;;;;;;3.60;1.00;;;;;;;;;;105326;1251;62072;-51
2023/02/16 00:51:48;;;;;;;6.90;1.10;;;;;;;;;;109220;1255;59547;-52
2023/02/16 00:54:16;;;;;;;6.40;1.20;;;;;;;;;;107153;1252;60608;-53
2023/02/16 00:56:43;;;;;;;6.30;1.10;;;;;;;;;;105555;1257;60463;-52
2023/02/16 00:59:19;;;;;;;11.10;1.40;;;;;;;;;;105262;1253;60498;-51
2023/02/16 01:01:47;;;;;;;6.90;1.20;;;;;;;;;;108262;1255;61123;-52
2023/02/16 01:04:20;;;;;;;4.40;1.30;;;;;;;;;;105536;1256;60406;-52
2023/02/16 01:12:22;;;;;;;5.60;1.10;;;;;;;;;;105190;1251;60613;-53
2023/02/16 01:14:52;;;;;;;4.10;1.40;;;;;;;;;;106050;1253;62149;-53
2023/02/16 01:17:22;;;;;;;6.50;1.70;;;;;;;;;;105287;1253;60432;-52
2023/02/16 01:19:56;;;;;;;8.20;1.90;;;;;;;;;;105660;1251;60666;-53
2023/02/16 01:22:25;;;;;;;4.40;1.40;;;;;;;;;;106072;1251;60543;-51
2023/02/16 01:24:53;;;;;;;7.20;1.40;;;;;;;;;;105765;1253;60428;-51
2023/02/16 01:27:21;;;;;;;4.80;1.70;;;;;;;;;;105338;1256;61158;-53
2023/02/16 01:29:49;;;;;;;6.30;1.20;;;;;;;;;;105872;1254;60782;-51
2023/02/16 01:32:17;;;;;;;5.90;1.30;;;;;;;;;;105426;1257;60752;-53
2023/02/16 01:34:45;;;;;;;8.00;1.40;;;;;;;;;;106681;1253;60418;-52
2023/02/16 01:37:13;;;;;;;5.10;1.40;;;;;;;;;;105200;1251;60508;-51
2023/02/16 01:39:43;;;;;;;4.40;1.20;;;;;;;;;;105501;1252;62151;-52
2023/02/16 01:42:12;;;;;;;7.20;1.40;;;;;;;;;;105168;1256;60425;-52
2023/02/16 01:44:57;;;;;;;3.70;1.40;;;;;;;;;;107009;1253;60789;-53
2023/02/16 01:47:28;;;;;;;6.70;1.70;;;;;;;;;;105220;1254;60399;-53
2023/02/16 01:49:57;;;;;;;4.20;1.20;;;;;;;;;;105606;1253;60700;-52
2023/02/16 01:52:33;;;;;;;4.70;1.10;;;;;;;;;;105185;1251;61987;-52
2023/02/16 01:55:25;;;;;;;5.50;1.40;;;;;;;;;;105399;1257;60432;-53
2023/02/16 01:58:00;;;;;;;4.80;1.00;;;;;;;;;;105162;1253;60443;-52
2023/02/16 02:00:30;;;;;;;3.70;1.10;;;;;;;;;;105805;1251;60576;-51
2023/02/16 02:05:47;;;;;;;6.30;1.30;;;;;;;;;;105830;1255;62135;-52
2023/02/16 02:08:34;;;;;;;6.70;1.00;;;;;;;;;;105958;1253;60496;-52
2023/02/16 02:11:16;;;;;;;4.30;1.10;;;;;;;;;;107731;1254;60481;-48
2023/02/16 02:13:57;;;;;;;4.60;0.90;;;;;;;;;;105884;1254;60545;-53
2023/02/16 02:16:26;;;;;;;3.10;1.10;;;;;;;;;;105874;1253;60619;-49
2023/02/16 02:18:54;;;;;;;1.90;0.80;;;;;;;;;;106247;1249;61834;-51
2023/02/16 02:24:22;;;;;;;4.90;1.20;;;;;;;;;;105791;1254;60657;-50
2023/02/16 02:27:08;;;;;;;1.70;0.90;;;;;;;;;;105367;1254;60523;-52
2023/02/16 02:29:37;;;;;;;4.60;1.30;;;;;;;;;;105323;1251;60487;-52
2023/02/16 02:32:20;;;;;;;3.20;1.10;;;;;;;;;;105869;1251;62110;-50
2023/02/16 02:34:54;;;;;;;5.50;1.40;;;;;;;;;;105330;1251;60589;-51
2023/02/16 02:37:37;;;;;;;5.30;1.10;;;;;;;;;;105335;1256;60530;-49
2023/02/16 02:40:15;;;;;;;3.80;1.50;;;;;;;;;;106539;1253;60530;-51
2023/02/16 02:43:02;;;;;;;3.50;1.20;;;;;;;;;;105480;1251;61276;-52
2023/02/16 02:45:35;;;;;;;4.20;1.20;;;;;;;;;;105634;1251;62465;-50
2023/02/16 02:48:03;;;;;;;6.40;1.20;;;;;;;;;;105634;1253;60332;-49
2023/02/16 03:00:39;;;;;;;5.00;1.30;;;;;;;;;;105505;1255;60834;-52
2023/02/16 03:02:14;;;;;;;2.90;1.20;;;;;;;;;;109017;1253;58350;-49
2023/02/16 03:04:42;;;;;;;4.70;1.10;;;;;;;;;;105570;1255;60967;-52
2023/02/16 03:07:10;;;;;;;3.40;1.40;;;;;;;;;;105910;1255;60530;-46
2023/02/16 03:09:38;;;;;;;4.90;1.40;;;;;;;;;;105530;1254;60461;-53
2023/02/16 03:14:55;;;;;;;5.10;1.10;;;;;;;;;;105524;1254;60360;-52
2023/02/16 03:31:27;;;;;;;3.40;1.60;;;;;;;;;;105593;1257;60570;-49
2023/02/16 03:33:55;;;;;;;6.40;1.80;;;;;;;;;;106188;1251;60409;-49
2023/02/16 03:36:23;;;;;;;4.30;1.10;;;;;;;;;;106345;1255;60335;-52
2023/02/16 03:38:52;;;;;;;3.30;1.20;;;;;;;;;;105424;1251;62100;-53
2023/02/16 03:41:21;;;;;;;4.70;1.60;;;;;;;;;;105801;1254;60434;-48
2023/02/16 03:43:49;;;;;;;7.30;1.90;;;;;;;;;;106108;1255;60766;-49
2023/02/16 03:46:17;;;;;;;6.20;2.00;;;;;;;;;;105614;1257;60348;-50
2023/02/16 03:48:45;;;;;;;7.20;2.20;;;;;;;;;;105701;1251;60345;-51
2023/02/16 03:51:13;;;;;;;6.00;2.10;;;;;;;;;;105521;1252;62102;-52
2023/02/16 03:53:41;;;;;;;6.20;1.70;;;;;;;;;;105441;1254;60585;-50
2023/02/16 03:56:09;;;;;;;5.80;2.50;;;;;;;;;;105494;1253;60567;-49
2023/02/16 03:58:37;;;;;;;9.60;2.50;;;;;;;;;;105878;1255;60408;-51
2023/02/16 04:01:05;;;;;;;8.80;1.80;;;;;;;;;;105556;1251;60424;-49
2023/02/16 04:03:34;;;;;;;5.30;2.00;;;;;;;;;;106104;1253;62114;-50
2023/02/16 04:06:04;;;;;;;3.80;1.40;;;;;;;;;;105292;1251;60866;-48
2023/02/16 04:08:32;;;;;;;5.90;1.70;;;;;;;;;;105353;1255;61148;-49
2023/02/16 04:12:34;;;;;;;4.10;1.40;;;;;;;;;;105734;1255;60510;-51
2023/02/16 04:13:49;;;;;;;4.30;2.00;;;;;;;;;;105366;1256;60428;-51
2023/02/16 04:16:17;;;;;;;7.90;2.10;;;;;;;;;;105583;1255;62118;-52
2023/02/16 04:18:45;;;;;;;5.40;1.90;;;;;;;;;;106247;1255;60421;-51
2023/02/16 04:21:13;;;;;;;8.80;2.50;;;;;;;;;;109177;1251;60734;-52
2023/02/16 04:23:41;;;;;;;5.20;2.30;;;;;;;;;;105398;1251;60744;-51
2023/02/16 04:26:09;;;;;;;4.50;2.80;;;;;;;;;;105496;1251;60507;-50
2023/02/16 04:28:37;;;;;;;6.10;2.30;;;;;;;;;;105259;1250;62114;-51
2023/02/16 04:31:05;;;;;;;9.00;2.10;;;;;;;;;;105309;1256;60510;-52
2023/02/16 04:33:34;;;;;;;6.70;2.60;;;;;;;;;;106383;1253;60808;-50
2023/02/16 04:36:02;;;;;;;6.90;3.00;;;;;;;;;;105676;1255;60577;-50
2023/02/16 04:38:30;;;;;;;8.30;2.40;;;;;;;;;;105404;1254;60438;-50
2023/02/16 04:40:59;;;;;;;5.20;1.90;;;;;;;;;;109327;1251;62469;-52
2023/02/16 04:45:58;;;;;;;3.70;1.60;;;;;;;;;;102351;1289;600365;-48
2023/02/16 04:48:26;;;;;;;5.20;2.00;;;;;;;;;;104715;1266;59650;-49
2023/02/16 04:50:54;;;;;;;6.80;1.60;;;;;;;;;;104557;1264;59020;-48
2023/02/16 04:53:22;;;;;;;4.90;1.70;;;;;;;;;;104686;1266;59103;-51
2023/02/16 04:55:50;;;;;;;7.30;1.60;;;;;;;;;;105695;1266;58895;-51
2023/02/16 04:58:18;;;;;;;5.20;1.30;;;;;;;;;;105339;1266;60948;-50
2023/02/16 05:00:46;;;;;;;5.90;1.00;;;;;;;;;;104624;1263;192517;-51
2023/02/16 05:03:13;;;;;;;4.20;1.20;;;;;;;;;;105218;1261;59450;-49
2023/02/16 05:05:42;;;;;;;3.30;1.50;;;;;;;;;;104645;1263;60567;-51
2023/02/16 05:08:10;;;;;;;3.00;1.20;;;;;;;;;;104586;1261;59029;-50
2023/02/16 05:10:38;;;;;;;4.40;1.10;;;;;;;;;;104589;1263;59707;-51
2023/02/16 05:15:52;;;;;;;3.90;1.60;;;;;;;;;;104192;1261;59599;-51
2023/02/16 05:18:20;;;;;;;3.80;1.20;;;;;;;;;;107037;1264;61480;-48
2023/02/16 05:23:39;;;;;;;9.10;2.80;;;;;;;;;;104769;1258;61020;-50
2023/02/16 05:26:07;;;;;;;6.50;2.30;;;;;;;;;;104384;1257;59733;-51
2023/02/16 05:28:35;;;;;;;2.90;1.10;;;;;;;;;;105815;1261;59557;-51
2023/02/16 05:31:04;;;;;;;2.10;0.80;;;;;;;;;;105195;1260;61019;-52
2023/02/16 05:33:33;;;;;;;1.40;0.60;;;;;;;;;;106061;1263;58949;-50
2023/02/16 05:36:01;;;;;;;4.30;0.70;;;;;;;;;;104630;1263;60828;-52
2023/02/16 05:38:29;;;;;;;2.40;0.70;;;;;;;;;;104969;1257;59903;-49
2023/02/16 05:40:57;;;;;;;4.20;0.70;;;;;;;;;;104945;1258;59624;-50
2023/02/16 05:43:26;;;;;;;1.90;0.60;;;;;;;;;;105011;1258;61307;-53
2023/02/16 05:45:55;;;;;;;4.60;0.70;;;;;;;;;;105699;1263;59823;-53
2023/02/16 05:48:24;;;;;;;4.70;0.90;;;;;;;;;;106392;1263;59994;-48
2023/02/16 05:50:55;;;;;;;7.30;1.50;;;;;;;;;;106050;1262;59707;-52
2023/02/16 05:53:25;;;;;;;13.70;4.30;;;;;;;;;;105619;1261;59662;-51
2023/02/16 05:56:16;;;;;;;21.10;6.10;;;;;;;;;;105077;1260;60547;-52
2023/02/16 05:58:44;;;;;;;13.50;4.30;;;;;;;;;;105238;1263;59621;-49
2023/02/16 06:01:12;;;;;;;11.10;3.70;;;;;;;;;;105652;1260;60883;-50
2023/02/16 06:03:40;;;;;;;10.80;2.30;;;;;;;;;;107341;1258;59144;-51
2023/02/16 06:06:08;;;;;;;11.20;1.60;;;;;;;;;;104862;1257;59742;-47
2023/02/16 06:08:37;;;;;;;5.20;1.50;;;;;;;;;;108574;1263;62973;-51
2023/02/16 06:11:05;;;;;;;9.10;3.40;;;;;;;;;;105900;1257;59621;-50
2023/02/16 06:13:39;;;;;;;6.80;2.20;;;;;;;;;;105076;1260;60866;-51
2023/02/16 06:16:07;;;;;;;12.00;6.20;;;;;;;;;;105926;1263;59720;-51
2023/02/16 06:18:35;;;;;;;9.70;5.50;;;;;;;;;;105170;1260;59532;-51
2023/02/16 06:21:03;;;;;;;11.50;5.60;;;;;;;;;;104874;1257;61133;-51
2023/02/16 06:23:32;;;;;;;13.20;6.30;;;;;;;;;;106584;1262;57638;-49
2023/02/16 06:26:00;;;;;;;12.40;6.90;;;;;;;;;;104895;1260;59602;-51
2023/02/16 06:28:28;;;;;;;11.40;6.10;;;;;;;;;;105129;1263;59612;-49
2023/02/16 06:30:57;;;;;;;11.30;6.60;;;;;;;;;;104715;1258;59618;-51
2023/02/16 06:33:25;;;;;;;9.40;7.30;;;;;;;;;;106564;1261;61579;-51
2023/02/16 06:35:57;;;;;;;11.80;6.60;;;;;;;;;;105020;1263;59503;-49
2023/02/16 06:38:25;;;;;;;19.40;9.90;;;;;;;;;;105504;1258;60744;-48
2023/02/16 06:40:53;;;;;;;21.40;10.70;;;;;;;;;;104869;1262;59713;-50
2023/02/16 06:43:22;;;;;;;19.10;11.70;;;;;;;;;;105023;1264;59628;-49
2023/02/16 06:45:49;;;;;;;20.50;11.80;;;;;;;;;;104898;1261;61301;-51
2023/02/16 06:48:18;;;;;;;21.90;12.10;;;;;;;;;;105043;1263;59591;-46
2023/02/16 06:50:45;;;;;;;19.70;12.80;;;;;;;;;;105013;1261;60830;-49
2023/02/16 06:53:13;;;;;;;23.10;12.50;;;;;;;;;;104968;1262;59642;-48
2023/02/16 06:55:41;;;;;;;22.10;13.00;;;;;;;;;;104813;1262;59536;-51
2023/02/16 06:58:09;;;;;;;27.00;13.30;;;;;;;;;;104944;1258;61114;-50
2023/02/16 07:00:37;;;;;;;23.00;9.50;;;;;;;;;;104741;1263;59714;-49
2023/02/16 07:03:06;;;;;;;21.10;9.30;;;;;;;;;;105679;1264;60754;-48
2023/02/16 07:05:34;;;;;;;18.90;8.20;;;;;;;;;;105023;1263;59772;-51
2023/02/16 07:08:01;;;;;;;12.50;5.80;;;;;;;;;;104607;1264;59589;-49
2023/02/16 07:10:30;;;;;;;13.90;5.60;;;;;;;;;;106529;1260;61436;-49
2023/02/16 07:13:16;;;;;;;6.40;3.70;;;;;;;;;;105003;1261;59723;-50
2023/02/16 07:15:45;;;;;;;12.50;3.20;;;;;;;;;;105076;1263;62003;-50
2023/02/16 07:18:13;;;;;;;10.40;4.30;;;;;;;;;;105394;1258;59630;-50
2023/02/16 07:20:44;;;;;;;8.70;3.90;;;;;;;;;;105042;1263;59541;-48
2023/02/16 07:23:12;;;;;;;8.00;3.50;;;;;;;;;;104785;1258;61117;-49
2023/02/16 07:25:40;;;;;;;10.40;3.50;;;;;;;;;;104891;1261;59636;-47
2023/02/16 07:28:08;;;;;;;7.80;3.50;;;;;;;;;;104946;1263;61243;-48
2023/02/16 07:30:36;;;;;;;12.20;4.70;;;;;;;;;;106372;1261;59730;-51
2023/02/16 07:33:05;;;;;;;9.30;2.90;;;;;;;;;;105042;1262;59506;-51
2023/02/16 07:35:33;;;;;;;8.60;2.30;;;;;;;;;;108754;1258;61384;-52
2023/02/16 07:38:01;;;;;;;6.20;1.70;;;;;;;;;;105692;1261;59663;-50
2023/02/16 07:40:29;;;;;;;10.20;2.50;;;;;;;;;;106677;1263;59768;-50
2023/02/16 07:43:00;;;;;;;14.40;3.00;;;;;;;;;;107457;1262;58482;-47
2023/02/16 07:45:28;;;;;;;7.80;1.50;;;;;;;;;;106427;1260;58962;-52
2023/02/16 07:47:57;;;;;;;3.60;1.20;;;;;;;;;;105002;1259;61301;-52
2023/02/16 07:50:25;;;;;;;5.20;1.30;;;;;;;;;;106934;1263;59653;-51
2023/02/16 07:52:53;;;;;;;10.00;1.80;;;;;;;;;;105346;1263;60953;-52
2023/02/16 07:55:21;;;;;;;3.10;1.10;;;;;;;;;;104831;1260;59713;-51
2023/02/16 07:57:53;;;;;;;6.20;1.50;;;;;;;;;;105236;1263;59773;-51
2023/02/16 08:00:21;;;;;;;1.30;0.90;;;;;;;;;;104753;1263;63137;-52
2023/02/16 08:02:49;;;;;;;2.90;1.10;;;;;;;;;;104784;1262;59601;-52
2023/02/16 08:05:17;;;;;;;2.60;1.10;;;;;;;;;;105553;1262;60813;-48
2023/02/16 08:07:46;;;;;;;4.30;1.10;;;;;;;;;;104846;1263;59106;-50
2023/02/16 08:10:14;;;;;;;4.60;1.20;;;;;;;;;;104848;1263;59601;-52
2023/02/16 08:12:44;;;;;;;7.00;2.90;;;;;;;;;;104924;1257;61255;-53
2023/02/16 08:15:12;;;;;;;5.00;1.80;;;;;;;;;;106658;1262;59615;-52
2023/02/16 08:17:40;;;;;;;4.70;2.20;;;;;;;;;;104696;1263;60777;-51
2023/02/16 08:20:08;;;;;;;4.70;0.90;;;;;;;;;;105473;1258;59729;-51
2023/02/16 08:22:37;;;;;;;3.20;1.10;;;;;;;;;;105759;1263;59528;-53
2023/02/16 08:25:05;;;;;;;4.00;1.00;;;;;;;;;;104601;1263;61500;-53
2023/02/16 08:27:34;;;;;;;7.00;3.10;;;;;;;;;;104737;1262;60036;-50
2023/02/16 08:30:11;;;;;;;6.70;4.80;;;;;;;;;;108744;1258;60778;-53
2023/02/16 08:32:40;;;;;;;8.00;5.10;;;;;;;;;;105920;1255;60169;-53
2023/02/16 08:35:27;;;;;;;9.90;6.50;;;;;;;;;;105124;1260;60174;-52
2023/02/16 08:37:55;;;;;;;11.20;6.70;;;;;;;;;;105272;1254;61335;-50
2023/02/16 08:40:23;;;;;;;14.70;7.90;;;;;;;;;;104911;1259;59515;-53
2023/02/16 08:42:51;;;;;;;12.40;6.00;;;;;;;;;;105989;1260;60439;-52
2023/02/16 08:45:20;;;;;;;13.10;8.20;;;;;;;;;;105123;1260;59694;-50
2023/02/16 08:47:48;;;;;;;12.10;5.90;;;;;;;;;;105228;1259;59611;-53
2023/02/16 08:50:16;;;;;;;14.70;7.30;;;;;;;;;;105092;1259;61316;-53
2023/02/16 08:52:44;;;;;;;13.70;6.30;;;;;;;;;;105027;1260;59755;-53
2023/02/16 08:55:14;;;;;;;13.00;6.80;;;;;;;;;;105377;1255;60715;-53
2023/02/16 08:57:42;;;;;;;12.80;6.70;;;;;;;;;;105645;1260;60535;-52
2023/02/16 09:02:57;;;;;;;7.50;3.40;;;;;;;;;;105017;1260;62123;-50
2023/02/16 09:05:26;;;;;;;6.00;2.10;;;;;;;;;;105658;1256;60420;-53
2023/02/16 09:07:56;;;;;;;3.70;1.70;;;;;;;;;;104920;1261;60645;-52
2023/02/16 09:10:24;;;;;;;7.10;2.50;;;;;;;;;;105305;1260;60536;-54
2023/02/16 09:12:58;;;;;;;5.20;1.50;;;;;;;;;;105259;1254;60421;-53
2023/02/16 09:15:26;;;;;;;5.10;1.90;;;;;;;;;;104767;1260;62096;-50
2023/02/16 09:17:54;;;;;;;4.70;1.70;;;;;;;;;;106772;1258;60533;-52
2023/02/16 09:20:22;;;;;;;3.50;1.20;;;;;;;;;;105062;1254;60825;-51
2023/02/16 09:22:51;;;;;;;3.90;1.90;;;;;;;;;;105091;1259;60527;-51
2023/02/16 09:25:19;;;;;;;4.80;1.10;;;;;;;;;;105139;1260;60304;-50
2023/02/16 09:27:48;;;;;;;4.60;1.30;;;;;;;;;;105261;1260;63265;-52
2023/02/16 09:30:17;;;;;;;5.40;1.40;;;;;;;;;;105585;1260;60329;-53
2023/02/16 09:32:45;;;;;;;4.40;1.20;;;;;;;;;;105419;1260;62027;-51
2023/02/16 09:35:14;;;;;;;2.20;1.00;;;;;;;;;;106262;1256;60548;-51
2023/02/16 09:37:42;;;;;;;3.30;1.00;;;;;;;;;;105095;1259;60337;-53
2023/02/16 09:40:11;;;;;;;5.70;1.60;;;;;;;;;;104862;1259;62357;-52
2023/02/16 09:42:49;;;;;;;2.60;1.40;;;;;;;;;;105147;1260;60460;-51
2023/02/16 09:45:17;;;;;;;2.40;1.20;;;;;;;;;;105183;1259;60920;-51
2023/02/16 09:47:46;;;;;;;5.40;1.70;;;;;;;;;;105088;1260;60527;-54
2023/02/16 09:50:18;;;;;;;3.30;1.30;;;;;;;;;;106497;1259;60318;-54
2023/02/16 09:53:12;;;;;;;4.50;1.80;;;;;;;;;;105866;1260;61099;-53
2023/02/16 09:55:45;;;;;;;4.30;1.60;;;;;;;;;;109257;1255;60252;-52
2023/02/16 09:58:18;;;;;;;3.80;1.40;;;;;;;;;;106469;1260;60373;-51
2023/02/16 10:00:49;;;;;;;2.60;1.30;;;;;;;;;;105120;1257;60705;-54
2023/02/16 10:03:23;;;;;;;3.40;1.30;;;;;;;;;;105604;1260;60353;-54
2023/02/16 10:05:55;;;;;;;6.30;2.00;;;;;;;;;;105385;1256;62783;-56
2023/02/16 10:08:36;;;;;;;2.60;1.30;;;;;;;;;;105033;1254;59418;-50
2023/02/16 10:11:04;;;;;;;4.70;1.70;;;;;;;;;;105888;1254;60506;-50
2023/02/16 10:13:39;;;;;;;4.30;1.40;;;;;;;;;;104881;1260;60475;-51
2023/02/16 10:16:10;;;;;;;2.70;1.20;;;;;;;;;;108599;1261;58553;-51
2023/02/16 10:18:45;;;;;;;3.40;1.50;;;;;;;;;;107290;1255;62363;-53
2023/02/16 10:21:14;;;;;;;6.30;1.60;;;;;;;;;;107297;1260;58915;-50
2023/02/16 10:23:45;;;;;;;5.50;1.30;;;;;;;;;;105033;1255;60757;-51
2023/02/16 10:26:14;;;;;;;3.40;1.70;;;;;;;;;;107442;1255;60421;-50
2023/02/16 10:28:47;;;;;;;3.50;1.60;;;;;;;;;;104906;1257;60419;-53
2023/02/16 10:31:20;;;;;;;4.10;1.10;;;;;;;;;;104838;1256;61878;-49
2023/02/16 10:34:00;;;;;;;3.20;1.30;;;;;;;;;;105672;1255;60511;-52
2023/02/16 10:36:42;;;;;;;4.50;1.30;;;;;;;;;;105016;1255;60834;-50
2023/02/16 10:39:29;;;;;;;2.60;1.50;;;;;;;;;;105390;1263;59538;-49
2023/02/16 10:42:17;;;;;;;6.30;1.70;;;;;;;;;;105022;1254;60335;-50
2023/02/16 10:44:51;;;;;;;4.30;1.40;;;;;;;;;;105103;1261;61922;-53
2023/02/16 10:47:28;;;;;;;2.40;1.30;;;;;;;;;;105510;1259;60434;-53
2023/02/16 10:49:57;;;;;;;3.00;1.60;;;;;;;;;;105061;1259;60842;-53
2023/02/16 10:52:36;;;;;;;10.00;1.50;;;;;;;;;;105392;1254;60443;-52
2023/02/16 10:55:06;;;;;;;2.20;1.40;;;;;;;;;;105668;1261;60300;-50
2023/02/16 10:57:34;;;;;;;3.60;1.70;;;;;;;;;;106428;1255;61822;-53
2023/02/16 11:00:08;;;;;;;3.60;1.70;;;;;;;;;;105881;1254;60456;-54
2023/02/16 11:02:37;;;;;;;3.30;1.40;;;;;;;;;;108919;1257;60831;-54
2023/02/16 11:05:35;;;;;;;3.80;1.20;;;;;;;;;;105704;1258;60357;-53
2023/02/16 11:08:10;;;;;;;2.60;1.40;;;;;;;;;;106000;1256;60407;-56
2023/02/16 11:10:47;;;;;;;2.50;1.20;;;;;;;;;;105492;1255;63277;-54
2023/02/16 11:13:19;;;;;;;4.80;1.60;;;;;;;;;;106016;1258;60375;-52
2023/02/16 11:15:55;;;;;;;5.10;1.80;;;;;;;;;;105792;1254;61040;-54
2023/02/16 11:18:33;;;;;;;3.20;1.20;;;;;;;;;;106976;1257;61595;-53
2023/02/16 11:21:02;;;;;;;2.20;1.40;;;;;;;;;;105749;1259;60425;-53
2023/02/16 11:23:41;;;;;;;2.70;1.20;;;;;;;;;;106696;1257;61846;-54
2023/02/16 11:26:12;;;;;;;3.70;1.40;;;;;;;;;;105641;1257;62380;-49
2023/02/16 11:28:43;;;;;;;7.40;1.40;;;;;;;;;;105236;1258;60964;-52
2023/02/16 11:31:11;;;;;;;4.90;2.10;;;;;;;;;;104621;1255;60474;-52
2023/02/16 11:33:40;;;;;;;4.50;1.60;;;;;;;;;;104956;1258;60398;-52
2023/02/16 11:36:38;;;;;;;3.80;1.40;;;;;;;;;;104943;1260;62132;-50
2023/02/16 11:39:19;;;;;;;3.30;1.50;;;;;;;;;;104873;1257;60417;-53
2023/02/16 11:41:54;;;;;;;3.70;1.90;;;;;;;;;;104868;1260;60527;-50
2023/02/16 11:44:25;;;;;;;3.40;1.50;;;;;;;;;;105672;1255;60414;-51
2023/02/16 11:46:55;;;;;;;4.40;1.50;;;;;;;;;;105741;1255;60475;-52
2023/02/16 11:49:26;;;;;;;4.60;1.50;;;;;;;;;;108232;1254;61710;-51
2023/02/16 11:51:54;;;;;;;4.50;1.30;;;;;;;;;;107702;1254;60526;-50
2023/02/16 11:54:22;;;;;;;4.30;1.80;;;;;;;;;;105814;1254;60354;-51
2023/02/16 11:57:20;;;;;;;3.80;1.20;;;;;;;;;;105140;1256;60518;-52
2023/02/16 11:59:48;;;;;;;6.50;1.70;;;;;;;;;;105056;1257;60440;-54
2023/02/16 12:02:15;;;;;;;5.90;1.70;;;;;;;;;;105189;1260;61837;-52
2023/02/16 12:04:57;;;;;;;5.70;1.90;;;;;;;;;;105426;1254;60498;-49
2023/02/16 12:07:29;;;;;;;4.30;2.10;;;;;;;;;;105311;1255;60863;-54
2023/02/16 12:10:08;;;;;;;4.40;1.60;;;;;;;;;;106744;1251;60401;-53
2023/02/16 12:12:52;;;;;;;3.40;1.40;;;;;;;;;;105517;1251;60529;-51
2023/02/16 12:15:26;;;;;;;5.50;2.00;;;;;;;;;;108856;1251;62502;-53
2023/02/16 12:18:01;;;;;;;3.60;1.70;;;;;;;;;;105661;1256;60421;-53
2023/02/16 12:20:48;;;;;;;2.80;1.70;;;;;;;;;;106595;1252;60306;-52
2023/02/16 12:23:20;;;;;;;4.40;2.10;;;;;;;;;;105408;1254;60370;-52
2023/02/16 12:26:17;;;;;;;5.30;2.20;;;;;;;;;;105392;1254;60403;-52
2023/02/16 12:28:48;;;;;;;8.20;2.30;;;;;;;;;;104889;1249;61942;-49
2023/02/16 12:31:32;;;;;;;2.50;1.30;;;;;;;;;;105355;1251;60319;-51
2023/02/16 12:34:09;;;;;;;5.20;2.00;;;;;;;;;;108554;1251;61066;-50
2023/02/16 12:36:43;;;;;;;4.20;1.80;;;;;;;;;;105370;1250;61185;-50
2023/02/16 12:39:16;;;;;;;2.80;1.30;;;;;;;;;;105684;1251;60622;-51
2023/02/16 12:41:44;;;;;;;7.10;2.90;;;;;;;;;;105524;1251;62224;-50
2023/02/16 12:44:16;;;;;;;7.60;2.90;;;;;;;;;;105466;1254;60457;-51
2023/02/16 12:46:46;;;;;;;5.70;3.70;;;;;;;;;;106080;1251;60759;-51
2023/02/16 12:49:20;;;;;;;6.90;3.40;;;;;;;;;;107002;1251;60552;-52
2023/02/16 12:51:48;;;;;;;9.40;3.10;;;;;;;;;;105280;1254;61637;-52
2023/02/16 12:54:20;;;;;;;3.40;1.30;;;;;;;;;;108379;1251;62564;-52
2023/02/16 12:56:51;;;;;;;2.60;1.30;;;;;;;;;;105539;1254;60602;-54
2023/02/16 12:59:23;;;;;;;3.10;1.20;;;;;;;;;;105432;1251;61012;-53
2023/02/16 13:01:53;;;;;;;5.10;2.00;;;;;;;;;;105408;1254;61132;-50
2023/02/16 13:04:39;;;;;;;4.20;1.50;;;;;;;;;;105625;1251;60360;-51
2023/02/16 13:07:16;;;;;;;3.30;1.90;;;;;;;;;;105158;1251;62441;-52
2023/02/16 13:09:56;;;;;;;5.50;2.60;;;;;;;;;;107209;1252;60514;-54
2023/02/16 13:12:24;;;;;;;5.90;2.40;;;;;;;;;;105419;1254;60363;-52
2023/02/16 13:14:59;;;;;;;5.50;2.70;;;;;;;;;;109395;1250;59467;-53
2023/02/16 13:17:32;;;;;;;2.70;2.00;;;;;;;;;;105799;1251;60424;-53
2023/02/16 13:20:00;;;;;;;3.90;1.80;;;;;;;;;;105516;1251;61899;-54
2023/02/16 13:22:51;;;;;;;3.30;1.80;;;;;;;;;;105713;1251;60293;-52
2023/02/16 13:25:29;;;;;;;4.30;1.60;;;;;;;;;;105793;1251;62177;-53
2023/02/16 13:28:22;;;;;;;3.30;1.30;;;;;;;;;;105723;1254;60528;-52
2023/02/16 13:30:57;;;;;;;4.00;1.90;;;;;;;;;;105445;1253;60332;-51
2023/02/16 13:33:40;;;;;;;3.60;1.40;;;;;;;;;;105758;1249;62178;-49
2023/02/16 13:36:09;;;;;;;6.30;2.40;;;;;;;;;;105447;1249;60431;-53
2023/02/16 13:38:56;;;;;;;4.20;2.40;;;;;;;;;;106434;1254;60880;-52
2023/02/16 13:41:28;;;;;;;5.70;2.90;;;;;;;;;;105551;1251;60468;-52
2023/02/16 13:43:56;;;;;;;7.00;3.50;;;;;;;;;;105840;1250;60376;-52
2023/02/16 13:46:31;;;;;;;16.40;9.90;;;;;;;;;;105472;1251;61224;-53
2023/02/16 13:48:59;;;;;;;7.80;3.30;;;;;;;;;;105951;1251;60486;-51
2023/02/16 13:51:29;;;;;;;4.00;2.10;;;;;;;;;;105538;1250;59743;-50
2023/02/16 13:53:58;;;;;;;4.20;1.90;;;;;;;;;;105782;1257;60410;-51
2023/02/16 13:56:29;;;;;;;5.40;1.90;;;;;;;;;;106279;1250;60450;-52
2023/02/16 13:58:58;;;;;;;3.70;1.60;;;;;;;;;;106112;1251;62284;-53
2023/02/16 14:01:35;;;;;;;4.60;1.60;;;;;;;;;;105711;1252;60903;-52
2023/02/16 14:04:11;;;;;;;3.10;1.60;;;;;;;;;;105954;1251;60759;-53
2023/02/16 14:06:41;;;;;;;3.40;1.40;;;;;;;;;;105442;1254;60792;-52
2023/02/16 14:09:10;;;;;;;4.70;2.10;;;;;;;;;;106965;1254;58940;-50
2023/02/16 14:11:58;;;;;;;3.00;1.30;;;;;;;;;;105554;1251;62282;-52
2023/02/16 14:14:30;;;;;;;3.40;1.40;;;;;;;;;;105402;1251;60337;-52
2023/02/16 14:17:24;;;;;;;4.70;1.40;;;;;;;;;;105320;1251;60752;-51
2023/02/16 14:20:04;;;;;;;2.90;1.30;;;;;;;;;;106468;1250;60532;-52
2023/02/16 14:22:52;;;;;;;2.70;1.10;;;;;;;;;;105386;1250;60412;-52
2023/02/16 14:25:23;;;;;;;3.40;1.70;;;;;;;;;;106505;1250;62299;-52
2023/02/16 14:27:51;;;;;;;4.60;1.50;;;;;;;;;;105281;1250;60662;-54
2023/02/16 14:30:27;;;;;;;4.50;1.50;;;;;;;;;;106979;1251;60818;-52
2023/02/16 14:32:56;;;;;;;2.70;1.30;;;;;;;;;;106006;1253;60370;-53
2023/02/16 14:35:29;;;;;;;4.60;1.20;;;;;;;;;;106716;1251;60406;-52
2023/02/16 14:37:57;;;;;;;3.70;1.60;;;;;;;;;;105384;1251;61161;-53
2023/02/16 14:40:34;;;;;;;4.20;2.10;;;;;;;;;;105424;1251;60682;-53
2023/02/16 14:43:04;;;;;;;2.70;1.20;;;;;;;;;;105187;1251;61419;-52
2023/02/16 14:45:50;;;;;;;3.60;1.50;;;;;;;;;;109276;1250;59194;-55
2023/02/16 14:48:36;;;;;;;3.80;1.50;;;;;;;;;;105451;1250;60414;-53
2023/02/16 14:51:04;;;;;;;3.20;1.40;;;;;;;;;;105788;1250;62143;-53
2023/02/16 14:53:55;;;;;;;3.80;1.60;;;;;;;;;;105853;1250;58997;-52
2023/02/16 14:56:37;;;;;;;4.40;1.80;;;;;;;;;;105381;1251;60576;-51
2023/02/16 14:59:23;;;;;;;7.70;2.80;;;;;;;;;;105524;1254;60447;-49
2023/02/16 15:01:51;;;;;;;5.60;2.60;;;;;;;;;;105013;1251;60422;-51
2023/02/16 15:04:29;;;;;;;4.80;2.30;;;;;;;;;;105192;1250;61851;-52
2023/02/16 15:06:58;;;;;;;5.80;3.40;;;;;;;;;;104788;1254;60345;-53
2023/02/16 15:09:27;;;;;;;4.00;2.10;;;;;;;;;;105328;1254;60373;-49
2023/02/16 15:12:20;;;;;;;3.80;2.30;;;;;;;;;;105168;1251;60443;-52
2023/02/16 15:14:51;;;;;;;4.70;1.70;;;;;;;;;;107092;1250;59972;-53
2023/02/16 15:17:32;;;;;;;4.00;1.40;;;;;;;;;;105075;1251;62004;-50
2023/02/16 15:20:03;;;;;;;4.60;2.80;;;;;;;;;;105373;1250;60723;-50
2023/02/16 15:22:31;;;;;;;3.50;1.60;;;;;;;;;;105285;1254;60737;-52
2023/02/16 15:25:04;;;;;;;3.40;2.10;;;;;;;;;;105425;1250;60638;-52
2023/02/16 15:27:32;;;;;;;4.10;1.60;;;;;;;;;;105305;1251;60332;-51
2023/02/16 15:30:11;;;;;;;6.10;2.30;;;;;;;;;;105265;1251;61808;-53
2023/02/16 15:32:40;;;;;;;5.20;3.00;;;;;;;;;;108484;1251;60506;-52
2023/02/16 15:35:09;;;;;;;4.80;2.50;;;;;;;;;;109159;1250;60771;-49
2023/02/16 15:37:39;;;;;;;5.80;3.20;;;;;;;;;;105614;1251;60405;-52
2023/02/16 15:40:23;;;;;;;7.90;3.10;;;;;;;;;;105508;1250;60497;-50
2023/02/16 15:42:53;;;;;;;5.70;2.90;;;;;;;;;;105444;1251;62747;-53
2023/02/16 15:45:41;;;;;;;5.20;3.00;;;;;;;;;;105154;1252;60650;-52
2023/02/16 15:48:12;;;;;;;4.60;3.00;;;;;;;;;;105322;1250;60773;-53